METAR Data
IDs: Format: Raw Decoded Include TAF

Data at: 1545 UTC 03 Dec 2021

KONO 031524Z AUTO 00000KT M1/4SM FZFG VV002 M01/M02 A3026 RMK AO2 T10111022
KONO 031453Z AUTO 00000KT 1/4SM FZFG VV002 M01/M03 A3027 RMK AO2 SLP269 I1000 I3000 T10111028 53002
KONO 031439Z AUTO 00000KT 1/2SM FZFG VV002 M01/M02 A3027 RMK AO2 I1000 T10111022
KONO 031353Z AUTO 00000KT 1/4SM FZFG VV002 M02/M03 A3026 RMK AO2 SLP268 I1000 T10221028
KONO 031253Z AUTO 00000KT 1/4SM FZFG VV002 M02/M04 A3025 RMK AO2 SLP263 I1000 T10221039
KONO 031246Z AUTO 00000KT 1/4SM FZFG VV002 M02/M03 A3025 RMK AO2 I1000 T10221033
KONO 031225Z AUTO 00000KT M1/4SM FZFG VV002 M02/M03 A3026 RMK AO2 I1000 T10221033
KONO 031153Z AUTO 00000KT 1/4SM FZFG VV002 M02/M04 A3026 RMK AO2 SLP263 I6001 T10221039 10011 21022 53005
KONO 031130Z AUTO 00000KT 1/4SM FZFG VV002 M02/M04 A3026 RMK AO2 T10221039
KONO 030905Z AUTO 00000KT 1/4SM FZFG VV002 M01/M02 A3025 RMK AO2 T10111022
KONO 030902Z AUTO 00000KT 3/4SM BR CLR M01/M02 A3025 RMK AO2 T10111022
KONO 030853Z AUTO 00000KT 1 3/4SM BR CLR 00/M02 A3025 RMK AO2 SLP258 I1000 I3000 T00001017 50002
KONO 030841Z AUTO 23003KT 1 1/2SM BR CLR M01/M02 A3024 RMK AO2 T10061022
KONO 030753Z AUTO 26004KT 2SM BR CLR 00/M02 A3025 RMK AO2 SLP261 T00001017
KONO 030743Z AUTO 23005KT 1 3/4SM BR CLR 00/M02 A3025 RMK AO2 T00001017
KONO 030719Z AUTO 00000KT 2SM BR CLR 01/M01 A3025 RMK AO2 T00061011
KONO 030653Z AUTO 00000KT 2 1/2SM BR CLR 01/M01 A3025 RMK AO2 SLP263 T00061011 401061033
KONO 030627Z AUTO 00000KT 2 1/2SM BR CLR 01/M01 A3025 RMK AO2 T00061011
KONO 030553Z AUTO 30003KT 3SM BR CLR 01/M01 A3024 RMK AO2 SLP260 T00111006 10089 20011 51007
KONO 030453Z AUTO 00000KT 3SM BR CLR 02/00 A3024 RMK AO2 SLP260 T00220000
KONO 030353Z AUTO 27005KT 4SM BR CLR 03/01 A3022 RMK AO2 SLP254 T00280011
KONO 030253Z AUTO 00000KT 4SM BR CLR 03/01 A3022 RMK AO2 SLP252 T00330011 53011
KONO 030153Z AUTO 28004KT 6SM HZ CLR 04/01 A3020 RMK AO2 SLP247 T00390011
KONO 030053Z AUTO 00000KT 7SM CLR 06/02 A3019 RMK AO2 SLP242 T00610022
KONO 022353Z AUTO 00000KT 6SM HZ CLR 09/03 A3018 RMK AO2 SLP235 T00890033 10106 20006 56011
KONO 022253Z AUTO 00000KT 7SM CLR 10/03 A3019 RMK AO2 SLP236 T01000033
KONO 022153Z AUTO 00000KT 6SM HZ CLR 09/04 A3020 RMK AO2 SLP240 T00940039
KONO 022053Z AUTO VRB03KT 5SM HZ CLR 07/03 A3022 RMK AO2 SLP249 T00670033 56019
KONO 022035Z AUTO 00000KT 3SM BR FEW003 06/03 A3023 RMK AO2 T00560033
KONO 022028Z AUTO 03003KT 2 1/2SM BR FEW003 05/03 A3023 RMK AO2 T00500028
KONO 022019Z AUTO 00000KT 2SM BR SCT004 05/03 A3023 RMK AO2 T00500028
KONO 022001Z AUTO 36003KT 1 3/4SM BR OVC004 04/02 A3024 RMK AO2 T00390022
KONO 021953Z AUTO 35003KT 2 1/2SM BR OVC003 04/02 A3024 RMK AO2 SLP258 T00440022
KONO 021947Z AUTO 00000KT 2 1/2SM BR OVC002 03/02 A3024 RMK AO2
KONO 021935Z AUTO 00000KT 1 1/4SM BR OVC002 03/02 A3024 RMK AO2 T00330022
KONO 021925Z AUTO 00000KT 3/4SM BR OVC002 03/02 A3025 RMK AO2 T00280017
KONO 021853Z AUTO 14004KT 1/4SM FG VV002 02/01 A3025 RMK AO2 SLP264 T00220011
KONO 021753Z AUTO 00000KT 1/4SM FG VV002 01/M01 A3028 RMK AO2 SLP273 I6002 T00061006 10006 21033 53009
KONO 021736Z AUTO 00000KT 1/4SM FG VV002 01/M01 A3029 RMK AO2 T00061011
KONO 021653Z AUTO 00000KT M1/4SM FZFG VV002 M01/M02 A3027 RMK AO2 SLP270 T10111017
KONO 021553Z AUTO 00000KT M1/4SM FZFG VV002 M01/M02 A3025 RMK AO2 SLP265 I1001 T10111017
KONO 021516Z AUTO 00000KT M1/4SM FZFG VV002 M01/M02 A3025 RMK AO2 I1000 T10111022
KONO 021453Z AUTO 00000KT 1/4SM FZFG VV002 M01/M02 A3025 RMK AO2 SLP263 I1000 I3001 T10111022 53004
KONO 021353Z AUTO 00000KT 1/4SM FZFG VV002 M02/M03 A3024 RMK AO2 SLP259 I1001 T10171033
KONO 021312Z AUTO 32003KT 1/4SM FZFG VV003 M03/M04 A3024 RMK AO2 I1000 T10281044
KONO 021303Z AUTO 33003KT 1/4SM FZFG VV005 M03/M05 A3024 RMK AO2 T10331050
KONO 021259Z AUTO 32003KT 1SM BR VV004 M03/M04 A3024 RMK AO2 T10331044
KONO 021257Z AUTO 33004KT 2 1/2SM BR FEW005 M03/M04 A3024 RMK AO2 T10281044
KONO 021253Z AUTO 00000KT 3SM BR CLR M02/M04 A3024 RMK AO2 SLP258 T10221039
KONO 021244Z AUTO 00000KT 2 1/2SM BR CLR M02/M03 A3024 RMK AO2 T10171033
KONO 021153Z AUTO 00000KT 3SM BR CLR M01/M02 A3024 RMK AO2 SLP252 T10061022 10017 21011 58007
KONO 021053Z AUTO 00000KT 3SM BR CLR M01/M02 A3025 RMK AO2 SLP256 T10061022
KONO 021024Z AUTO 29003KT 3SM BR FEW004 00/M02 A3026 RMK AO2 T00001017
KONO 020953Z AUTO 28003KT 4SM BR CLR 00/M02 A3026 RMK AO2 SLP259 T00001017
KONO 020853Z AUTO 26003KT 3SM BR CLR 00/M02 A3026 RMK AO2 SLP260 T00001017 56007
KONO 020753Z AUTO 23003KT 4SM BR CLR 01/M01 A3026 RMK AO2 SLP261 T00111011
KONO 020653Z AUTO 28003KT 3SM BR CLR 01/M01 A3028 RMK AO2 SLP270 T00061011 401061017
KONO 020553Z AUTO 27003KT 4SM BR CLR 01/M01 A3028 RMK AO2 SLP274 T00111011 10094 20000 56001
KONO 020453Z AUTO 00000KT 4SM BR CLR 02/00 A3028 RMK AO2 SLP274 T00220000
KONO 020353Z AUTO 00000KT 5SM BR CLR 03/01 A3028 RMK AO2 SLP273 T00280006